Time,TemperatureF,DewpointF,PressureIn,WindDirection,WindDirectionDegrees,WindSpeedMPH,WindSpeedGustMPH,Humidity,HourlyPrecipIn,Conditions,Clouds,dailyrainin,SoftwareType,DateUTC
2013-11-06 07:00:00,33.8,31.4,30.10,NNW,338,1.1,1.1,91,0.01,,,0.00,WUHU216HW,2013-11-06 13:00:00,
2013-11-06 07:01:00,33.8,31.4,30.10,NNW,338,1.1,1.1,91,0.01,,,0.00,WUHU216HW,2013-11-06 13:01:00,
2013-11-06 07:05:00,33.8,31.4,30.10,NNW,338,1.1,2.0,91,0.01,,,0.00,WUHU216HW,2013-11-06 13:05:00,
2013-11-06 07:10:00,33.8,31.4,30.10,NNW,338,1.1,2.0,91,0.01,,,0.00,WUHU216HW,2013-11-06 13:10:00,
2013-11-06 07:31:00,33.8,31.4,30.09,WNW,293,3.6,3.6,91,0.00,,,0.00,WUHU216HW,2013-11-06 13:31:00,
2013-11-06 07:36:00,33.8,31.4,30.09,WNW,293,3.6,3.6,91,0.00,,,0.00,WUHU216HW,2013-11-06 13:36:00,
2013-11-06 08:00:00,34.2,31.8,30.10,North,0,1.8,1.8,91,0.00,,,0.00,WUHU216HW,2013-11-06 14:00:00,
2013-11-06 08:05:00,34.2,31.8,30.10,North,0,1.8,1.8,91,0.00,,,0.00,WUHU216HW,2013-11-06 14:05:00,
2013-11-06 08:30:00,34.2,31.5,30.11,NNW,338,2.7,2.7,90,0.01,,,0.00,WUHU216HW,2013-11-06 14:30:00,
2013-11-06 08:35:00,34.2,31.5,30.11,NNW,338,2.7,2.7,90,0.01,,,0.00,WUHU216HW,2013-11-06 14:35:00,
2013-11-06 09:00:00,34.6,31.9,30.10,NNW,338,1.6,1.6,90,0.02,,,0.01,WUHU216HW,2013-11-06 15:00:00,
2013-11-06 09:05:00,34.6,31.9,30.10,NNW,338,1.6,1.6,90,0.01,,,0.02,WUHU216HW,2013-11-06 15:05:00,
2013-11-06 09:10:00,34.6,31.9,30.10,NNW,338,1.6,1.6,90,0.01,,,0.02,WUHU216HW,2013-11-06 15:10:00,
2013-11-06 09:30:00,35.3,32.3,30.12,NNW,338,1.6,1.6,89,0.02,,,0.02,WUHU216HW,2013-11-06 15:30:00,
2013-11-06 09:35:00,35.3,32.3,30.12,NNW,338,1.6,1.6,89,0.02,,,0.02,WUHU216HW,2013-11-06 15:35:00,
2013-11-06 10:00:00,35.3,32.3,30.12,NNW,338,1.6,1.6,89,0.03,,,0.03,WUHU216HW,2013-11-06 16:00:00,
2013-11-06 10:05:00,35.3,32.3,30.12,NNW,338,1.6,1.6,89,0.03,,,0.06,WUHU216HW,2013-11-06 16:05:00,
2013-11-06 10:10:00,35.3,32.3,30.12,NNW,338,1.6,1.6,89,0.03,,,0.06,WUHU216HW,2013-11-06 16:10:00,
2013-11-06 10:30:00,35.5,32.2,30.13,NW,315,1.6,1.6,88,0.02,,,0.06,WUHU216HW,2013-11-06 16:30:00,
2013-11-06 10:35:00,35.5,32.2,30.13,NW,315,1.6,1.6,88,0.02,,,0.06,WUHU216HW,2013-11-06 16:35:00,
2013-11-06 11:00:00,35.6,32.0,30.14,NW,315,4.0,4.0,87,0.03,,,0.06,WUHU216HW,2013-11-06 17:00:00,
2013-11-06 11:05:00,35.6,32.0,30.14,NW,315,4.0,4.0,87,0.03,,,0.08,WUHU216HW,2013-11-06 17:05:00,
2013-11-06 11:10:00,35.6,32.0,30.14,NW,315,4.0,4.0,87,0.03,,,0.08,WUHU216HW,2013-11-06 17:10:00,
2013-11-06 11:30:00,35.3,31.7,30.14,North,0,3.1,3.1,87,0.02,,,0.08,WUHU216HW,2013-11-06 17:30:00,
2013-11-06 11:35:00,35.3,31.7,30.14,North,0,3.1,3.1,87,0.02,,,0.08,WUHU216HW,2013-11-06 17:35:00,
2013-11-06 12:00:00,34.9,31.1,30.14,NNW,338,2.5,2.5,86,0.02,,,0.09,WUHU216HW,2013-11-06 18:00:00,
2013-11-06 12:05:00,34.9,31.1,30.14,NW,315,2.7,2.7,86,0.02,,,0.11,WUHU216HW,2013-11-06 18:05:00,
2013-11-06 12:10:00,34.9,31.1,30.14,NW,315,2.7,2.7,86,0.02,,,0.11,WUHU216HW,2013-11-06 18:10:00,
2013-11-06 12:30:00,35.3,30.9,30.14,NW,315,3.4,3.4,84,0.02,,,0.11,WUHU216HW,2013-11-06 18:30:00,
2013-11-06 12:35:00,35.3,30.9,30.14,NW,315,3.4,3.4,84,0.02,,,0.11,WUHU216HW,2013-11-06 18:35:00,
2013-11-06 13:00:00,34.6,30.2,30.15,WNW,293,1.6,1.6,84,0.02,,,0.11,WUHU216HW,2013-11-06 19:00:00,
2013-11-06 13:05:00,34.6,30.2,30.15,WNW,293,1.6,1.6,84,0.02,,,0.13,WUHU216HW,2013-11-06 19:05:00,
2013-11-06 13:10:00,34.6,30.2,30.15,WNW,293,1.6,1.6,84,0.02,,,0.13,WUHU216HW,2013-11-06 19:10:00,
2013-11-06 13:30:00,35.3,30.9,30.16,NNW,338,3.4,3.4,84,0.01,,,0.13,WUHU216HW,2013-11-06 19:30:00,
2013-11-06 13:35:00,35.3,30.9,30.16,NNW,338,3.4,3.4,84,0.01,,,0.13,WUHU216HW,2013-11-06 19:35:00,
2013-11-06 14:00:00,34.6,29.0,30.17,NW,315,4.5,4.5,80,0.00,,,0.13,WUHU216HW,2013-11-06 20:00:00,
2013-11-06 14:05:00,34.6,29.0,30.17,NW,315,4.5,4.5,80,0.00,,,0.13,WUHU216HW,2013-11-06 20:05:00,
2013-11-06 14:30:00,34.4,29.1,30.18,WNW,293,3.4,3.4,81,0.01,,,0.13,WUHU216HW,2013-11-06 20:30:00,
2013-11-06 14:35:00,34.4,29.1,30.18,WNW,293,3.4,3.4,81,0.01,,,0.13,WUHU216HW,2013-11-06 20:35:00,
2013-11-06 15:00:00,33.3,28.1,30.19,NW,315,3.1,3.1,81,0.01,,,0.13,WUHU216HW,2013-11-06 21:00:00,
2013-11-06 15:05:00,33.3,28.1,30.19,NW,315,3.1,3.1,81,0.01,,,0.13,WUHU216HW,2013-11-06 21:05:00,
2013-11-06 15:30:00,32.8,27.3,30.21,WNW,293,2.2,2.2,80,0.00,,,0.13,WUHU216HW,2013-11-06 21:30:00,
2013-11-06 15:35:00,32.8,27.3,30.21,WNW,293,2.2,2.2,80,0.00,,,0.13,WUHU216HW,2013-11-06 21:35:00,
2013-11-06 16:00:00,32.4,27.0,30.22,WNW,293,1.1,1.1,80,0.00,,,0.13,WUHU216HW,2013-11-06 22:00:00,
2013-11-06 16:05:00,32.4,27.0,30.22,WNW,293,1.1,1.1,80,0.00,,,0.13,WUHU216HW,2013-11-06 22:05:00,
2013-11-06 16:30:00,32.0,26.9,30.22,WNW,293,1.1,1.1,81,0.00,,,0.13,WUHU216HW,2013-11-06 22:30:00,
2013-11-06 16:35:00,32.0,26.9,30.22,WNW,293,1.1,1.1,81,0.00,,,0.13,WUHU216HW,2013-11-06 22:35:00,
2013-11-06 17:00:00,31.7,26.6,30.23,WNW,293,0.0,0.0,81,0.00,,,0.13,WUHU216HW,2013-11-06 23:00:00,
2013-11-06 17:05:00,31.7,26.6,30.23,WNW,293,0.0,0.0,81,0.00,,,0.13,WUHU216HW,2013-11-06 23:05:00,
2013-11-06 17:30:00,31.3,26.5,30.24,WNW,293,1.1,1.1,82,0.00,,,0.13,WUHU216HW,2013-11-06 23:30:00,
2013-11-06 17:35:00,31.3,26.5,30.24,WNW,293,1.1,1.1,82,0.00,,,0.13,WUHU216HW,2013-11-06 23:35:00,
2013-11-06 18:00:00,30.4,25.9,30.25,WNW,293,0.7,0.7,83,0.00,,,0.13,WUHU216HW,2013-11-07 00:00:00,
2013-11-06 18:05:00,30.4,25.9,30.25,WNW,293,0.7,0.7,83,0.00,,,0.13,WUHU216HW,2013-11-07 00:05:00,
2013-11-06 18:30:00,29.7,25.5,30.26,WNW,293,0.4,0.4,84,0.00,,,0.13,WUHU216HW,2013-11-07 00:30:00,
2013-11-06 18:35:00,29.7,25.5,30.26,WNW,293,0.4,0.4,84,0.00,,,0.13,WUHU216HW,2013-11-07 00:35:00,
2013-11-06 19:00:00,29.0,25.0,30.26,WNW,293,0.7,0.7,85,0.00,,,0.13,WUHU216HW,2013-11-07 01:00:00,
2013-11-06 19:05:00,29.0,25.0,30.26,WNW,293,0.7,0.7,85,0.00,,,0.13,WUHU216HW,2013-11-07 01:05:00,
2013-11-06 19:30:00,28.4,24.5,30.27,WNW,293,1.3,1.3,85,0.00,,,0.13,WUHU216HW,2013-11-07 01:30:00,
2013-11-06 19:35:00,28.4,24.5,30.27,WNW,293,1.3,1.3,85,0.00,,,0.13,WUHU216HW,2013-11-07 01:35:00,
2013-11-06 20:00:00,28.4,24.2,30.27,WNW,293,1.1,1.1,84,0.00,,,0.13,WUHU216HW,2013-11-07 02:00:00,
2013-11-06 20:05:00,28.4,24.2,30.27,WNW,293,1.1,1.1,84,0.00,,,0.13,WUHU216HW,2013-11-07 02:05:00,
2013-11-06 20:30:00,28.1,23.6,30.28,WNW,293,1.3,1.3,83,0.00,,,0.13,WUHU216HW,2013-11-07 02:30:00,
2013-11-06 20:35:00,28.1,23.6,30.28,WNW,293,1.3,1.3,83,0.00,,,0.13,WUHU216HW,2013-11-07 02:35:00,
2013-11-06 21:00:00,27.7,23.2,30.28,WNW,293,0.9,0.9,83,0.00,,,0.13,WUHU216HW,2013-11-07 03:00:00,
2013-11-06 21:05:00,27.7,23.2,30.28,WNW,293,0.9,0.9,83,0.00,,,0.13,WUHU216HW,2013-11-07 03:05:00,
2013-11-06 21:30:00,27.5,22.7,30.29,WNW,293,0.4,0.4,82,0.00,,,0.13,WUHU216HW,2013-11-07 03:30:00,
2013-11-06 21:35:00,27.5,22.7,30.29,WNW,293,0.4,0.4,82,0.00,,,0.13,WUHU216HW,2013-11-07 03:35:00,
2013-11-06 22:00:00,27.5,22.4,30.30,WNW,293,1.8,1.8,81,0.00,,,0.13,WUHU216HW,2013-11-07 04:00:00,
2013-11-06 22:05:00,27.5,22.4,30.30,WNW,293,1.8,1.8,81,0.00,,,0.13,WUHU216HW,2013-11-07 04:05:00,
2013-11-06 22:10:00,27.5,22.4,30.30,WNW,293,1.8,1.8,81,0.00,,,0.13,WUHU216HW,2013-11-07 04:10:00,
2013-11-06 22:30:00,27.7,22.3,30.30,WNW,293,2.5,2.5,80,0.00,,,0.13,WUHU216HW,2013-11-07 04:30:00,
2013-11-06 22:35:00,27.7,22.3,30.30,WNW,293,2.5,2.5,80,0.00,,,0.13,WUHU216HW,2013-11-07 04:35:00,
2013-11-06 23:00:00,28.4,22.8,30.30,WNW,293,1.6,1.6,79,0.00,,,0.13,WUHU216HW,2013-11-07 05:00:00,
2013-11-06 23:01:00,28.4,22.8,30.30,WNW,293,2.2,2.2,79,0.00,,,0.13,WUHU216HW,2013-11-07 05:01:00,
2013-11-06 23:02:00,28.4,22.8,30.30,WNW,293,2.2,2.2,79,0.00,,,0.13,WUHU216HW,2013-11-07 05:02:00,
2013-11-06 23:06:00,28.4,22.8,30.30,WNW,293,2.2,2.2,79,0.00,,,0.13,WUHU216HW,2013-11-07 05:06:00,
2013-11-06 23:30:00,27.7,22.1,30.30,WNW,293,0.9,0.9,79,0.00,,,0.13,WUHU216HW,2013-11-07 05:30:00,
2013-11-06 23:35:00,27.7,22.1,30.30,WNW,293,0.9,0.9,79,0.00,,,0.13,WUHU216HW,2013-11-07 05:35:00,